sensor_id;sensor_type;location;lat;lon;timestamp;P1;durP1;ratioP1;P2;durP2;ratioP2
12059;SDS011;6091;51.432;6.880;2023-02-05T00:01:44;0.90;;;0.90;;
12059;SDS011;6091;51.432;6.880;2023-02-05T00:04:11;0.70;;;0.70;;
12059;SDS011;6091;51.432;6.880;2023-02-05T00:06:38;0.70;;;0.70;;
12059;SDS011;6091;51.432;6.880;2023-02-05T00:09:05;0.88;;;0.80;;
12059;SDS011;6091;51.432;6.880;2023-02-05T00:11:32;0.60;;;0.60;;
12059;SDS011;6091;51.432;6.880;2023-02-05T00:13:59;0.60;;;0.60;;
12059;SDS011;6091;51.432;6.880;2023-02-05T00:16:26;0.68;;;0.68;;
12059;SDS011;6091;51.432;6.880;2023-02-05T00:18:53;0.60;;;0.60;;
12059;SDS011;6091;51.432;6.880;2023-02-05T00:21:21;0.50;;;0.50;;
12059;SDS011;6091;51.432;6.880;2023-02-05T00:23:49;0.70;;;0.70;;
12059;SDS011;6091;51.432;6.880;2023-02-05T00:26:16;0.68;;;0.65;;
12059;SDS011;6091;51.432;6.880;2023-02-05T00:28:43;0.95;;;0.70;;
12059;SDS011;6091;51.432;6.880;2023-02-05T00:31:13;1.02;;;0.70;;
12059;SDS011;6091;51.432;6.880;2023-02-05T00:33:46;0.82;;;0.77;;
12059;SDS011;6091;51.432;6.880;2023-02-05T00:36:16;0.77;;;0.70;;
12059;SDS011;6091;51.432;6.880;2023-02-05T00:38:46;0.88;;;0.70;;
12059;SDS011;6091;51.432;6.880;2023-02-05T00:41:15;0.57;;;0.57;;
12059;SDS011;6091;51.432;6.880;2023-02-05T00:43:43;1.13;;;0.50;;
12059;SDS011;6091;51.432;6.880;2023-02-05T00:46:10;0.60;;;0.60;;
12059;SDS011;6091;51.432;6.880;2023-02-05T00:48:39;0.50;;;0.50;;
12059;SDS011;6091;51.432;6.880;2023-02-05T00:51:08;0.60;;;0.60;;
12059;SDS011;6091;51.432;6.880;2023-02-05T00:53:36;0.50;;;0.50;;
12059;SDS011;6091;51.432;6.880;2023-02-05T00:56:03;0.60;;;0.60;;
12059;SDS011;6091;51.432;6.880;2023-02-05T00:58:31;0.80;;;0.80;;
12059;SDS011;6091;51.432;6.880;2023-02-05T01:00:58;0.60;;;0.60;;
12059;SDS011;6091;51.432;6.880;2023-02-05T01:03:25;0.60;;;0.60;;
12059;SDS011;6091;51.432;6.880;2023-02-05T01:05:52;1.00;;;0.68;;
12059;SDS011;6091;51.432;6.880;2023-02-05T01:08:19;0.70;;;0.70;;
12059;SDS011;6091;51.432;6.880;2023-02-05T01:10:46;0.60;;;0.60;;
12059;SDS011;6091;51.432;6.880;2023-02-05T01:13:16;0.60;;;0.60;;
12059;SDS011;6091;51.432;6.880;2023-02-05T01:15:44;1.13;;;0.60;;
12059;SDS011;6091;51.432;6.880;2023-02-05T01:18:11;0.60;;;0.60;;
12059;SDS011;6091;51.432;6.880;2023-02-05T01:20:39;0.57;;;0.57;;
12059;SDS011;6091;51.432;6.880;2023-02-05T01:23:08;1.33;;;0.70;;
12059;SDS011;6091;51.432;6.880;2023-02-05T01:25:36;0.70;;;0.70;;
12059;SDS011;6091;51.432;6.880;2023-02-05T01:28:03;0.50;;;0.50;;
12059;SDS011;6091;51.432;6.880;2023-02-05T01:30:32;0.70;;;0.70;;
12059;SDS011;6091;51.432;6.880;2023-02-05T01:33:00;0.73;;;0.70;;
12059;SDS011;6091;51.432;6.880;2023-02-05T01:35:28;0.55;;;0.55;;
12059;SDS011;6091;51.432;6.880;2023-02-05T01:37:56;0.68;;;0.63;;
12059;SDS011;6091;51.432;6.880;2023-02-05T01:40:23;0.57;;;0.57;;
12059;SDS011;6091;51.432;6.880;2023-02-05T01:42:50;0.50;;;0.50;;
12059;SDS011;6091;51.432;6.880;2023-02-05T01:47:47;0.70;;;0.70;;
12059;SDS011;6091;51.432;6.880;2023-02-05T01:50:30;0.60;;;0.60;;
12059;SDS011;6091;51.432;6.880;2023-02-05T01:53:23;0.70;;;0.50;;
12059;SDS011;6091;51.432;6.880;2023-02-05T01:56:02;0.68;;;0.57;;
12059;SDS011;6091;51.432;6.880;2023-02-05T01:58:40;0.60;;;0.60;;
12059;SDS011;6091;51.432;6.880;2023-02-05T02:01:17;0.82;;;0.70;;
12059;SDS011;6091;51.432;6.880;2023-02-05T02:03:45;0.60;;;0.60;;
12059;SDS011;6091;51.432;6.880;2023-02-05T02:06:15;0.70;;;0.60;;
12059;SDS011;6091;51.432;6.880;2023-02-05T02:08:42;0.98;;;0.70;;
12059;SDS011;6091;51.432;6.880;2023-02-05T02:11:08;0.50;;;0.50;;
12059;SDS011;6091;51.432;6.880;2023-02-05T02:13:42;0.80;;;0.80;;
12059;SDS011;6091;51.432;6.880;2023-02-05T02:16:12;0.70;;;0.60;;
12059;SDS011;6091;51.432;6.880;2023-02-05T02:18:41;0.50;;;0.50;;
12059;SDS011;6091;51.432;6.880;2023-02-05T02:21:26;0.60;;;0.60;;
12059;SDS011;6091;51.432;6.880;2023-02-05T02:30:34;0.63;;;0.60;;
12059;SDS011;6091;51.432;6.880;2023-02-05T02:33:25;0.47;;;0.47;;
12059;SDS011;6091;51.432;6.880;2023-02-05T02:36:25;0.57;;;0.57;;
12059;SDS011;6091;51.432;6.880;2023-02-05T02:39:12;0.50;;;0.50;;
12059;SDS011;6091;51.432;6.880;2023-02-05T02:42:02;0.50;;;0.50;;
12059;SDS011;6091;51.432;6.880;2023-02-05T02:44:49;0.55;;;0.55;;
12059;SDS011;6091;51.432;6.880;2023-02-05T02:47:24;0.77;;;0.57;;
12059;SDS011;6091;51.432;6.880;2023-02-05T02:50:16;0.40;;;0.40;;
12059;SDS011;6091;51.432;6.880;2023-02-05T02:52:51;0.52;;;0.52;;
12059;SDS011;6091;51.432;6.880;2023-02-05T02:55:21;0.50;;;0.50;;
12059;SDS011;6091;51.432;6.880;2023-02-05T02:57:50;0.40;;;0.40;;
12059;SDS011;6091;51.432;6.880;2023-02-05T03:00:23;0.68;;;0.50;;
12059;SDS011;6091;51.432;6.880;2023-02-05T03:02:57;0.50;;;0.50;;
12059;SDS011;6091;51.432;6.880;2023-02-05T03:05:30;0.88;;;0.60;;
12059;SDS011;6091;51.432;6.880;2023-02-05T03:08:04;0.55;;;0.55;;
12059;SDS011;6091;51.432;6.880;2023-02-05T03:11:04;0.98;;;0.60;;
12059;SDS011;6091;51.432;6.880;2023-02-05T03:13:42;0.40;;;0.40;;
12059;SDS011;6091;51.432;6.880;2023-02-05T03:16:14;0.68;;;0.55;;
12059;SDS011;6091;51.432;6.880;2023-02-05T03:18:45;0.50;;;0.50;;
12059;SDS011;6091;51.432;6.880;2023-02-05T03:21:20;0.57;;;0.57;;
12059;SDS011;6091;51.432;6.880;2023-02-05T03:23:55;0.50;;;0.50;;
12059;SDS011;6091;51.432;6.880;2023-02-05T03:28:49;0.50;;;0.50;;
12059;SDS011;6091;51.432;6.880;2023-02-05T03:31:18;1.05;;;0.80;;
12059;SDS011;6091;51.432;6.880;2023-02-05T03:33:56;0.60;;;0.60;;
12059;SDS011;6091;51.432;6.880;2023-02-05T03:36:53;0.50;;;0.45;;
12059;SDS011;6091;51.432;6.880;2023-02-05T03:45:32;0.45;;;0.45;;
12059;SDS011;6091;51.432;6.880;2023-02-05T03:48:49;0.60;;;0.60;;
12059;SDS011;6091;51.432;6.880;2023-02-05T03:57:28;0.68;;;0.68;;
12059;SDS011;6091;51.432;6.880;2023-02-05T04:00:05;0.63;;;0.50;;
12059;SDS011;6091;51.432;6.880;2023-02-05T04:02:34;0.57;;;0.50;;
12059;SDS011;6091;51.432;6.880;2023-02-05T04:05:01;0.70;;;0.60;;
12059;SDS011;6091;51.432;6.880;2023-02-05T04:07:29;0.40;;;0.40;;
12059;SDS011;6091;51.432;6.880;2023-02-05T04:09:56;0.60;;;0.60;;
12059;SDS011;6091;51.432;6.880;2023-02-05T04:12:22;0.50;;;0.50;;
12059;SDS011;6091;51.432;6.880;2023-02-05T04:14:49;0.60;;;0.60;;
12059;SDS011;6091;51.432;6.880;2023-02-05T04:17:16;0.50;;;0.50;;
12059;SDS011;6091;51.432;6.880;2023-02-05T04:19:43;0.65;;;0.65;;
12059;SDS011;6091;51.432;6.880;2023-02-05T04:22:10;0.50;;;0.50;;
12059;SDS011;6091;51.432;6.880;2023-02-05T04:24:37;0.60;;;0.60;;
12059;SDS011;6091;51.432;6.880;2023-02-05T04:27:04;0.50;;;0.50;;
12059;SDS011;6091;51.432;6.880;2023-02-05T04:29:32;0.90;;;0.50;;
12059;SDS011;6091;51.432;6.880;2023-02-05T04:31:58;0.75;;;0.40;;
12059;SDS011;6091;51.432;6.880;2023-02-05T04:34:25;1.08;;;0.75;;
12059;SDS011;6091;51.432;6.880;2023-02-05T04:36:52;0.50;;;0.50;;
12059;SDS011;6091;51.432;6.880;2023-02-05T04:39:19;0.60;;;0.57;;
12059;SDS011;6091;51.432;6.880;2023-02-05T04:41:46;0.73;;;0.60;;
12059;SDS011;6091;51.432;6.880;2023-02-05T04:44:13;0.50;;;0.50;;
12059;SDS011;6091;51.432;6.880;2023-02-05T04:46:40;1.17;;;0.60;;
12059;SDS011;6091;51.432;6.880;2023-02-05T04:49:07;0.50;;;0.50;;
12059;SDS011;6091;51.432;6.880;2023-02-05T04:51:34;0.50;;;0.50;;
12059;SDS011;6091;51.432;6.880;2023-02-05T04:54:01;0.60;;;0.60;;
12059;SDS011;6091;51.432;6.880;2023-02-05T04:56:28;1.17;;;0.50;;
12059;SDS011;6091;51.432;6.880;2023-02-05T04:58:55;0.55;;;0.55;;
12059;SDS011;6091;51.432;6.880;2023-02-05T05:01:22;0.68;;;0.68;;
12059;SDS011;6091;51.432;6.880;2023-02-05T05:03:49;0.73;;;0.73;;
12059;SDS011;6091;51.432;6.880;2023-02-05T05:06:17;0.60;;;0.60;;
12059;SDS011;6091;51.432;6.880;2023-02-05T05:08:44;0.55;;;0.55;;
12059;SDS011;6091;51.432;6.880;2023-02-05T05:11:13;0.60;;;0.60;;
12059;SDS011;6091;51.432;6.880;2023-02-05T05:13:44;0.63;;;0.63;;
12059;SDS011;6091;51.432;6.880;2023-02-05T05:16:11;0.60;;;0.60;;
12059;SDS011;6091;51.432;6.880;2023-02-05T05:18:39;0.52;;;0.52;;
12059;SDS011;6091;51.432;6.880;2023-02-05T05:21:06;0.50;;;0.50;;
12059;SDS011;6091;51.432;6.880;2023-02-05T05:23:34;0.63;;;0.60;;
12059;SDS011;6091;51.432;6.880;2023-02-05T05:26:06;0.55;;;0.55;;
12059;SDS011;6091;51.432;6.880;2023-02-05T05:28:36;0.75;;;0.60;;
12059;SDS011;6091;51.432;6.880;2023-02-05T05:31:08;0.50;;;0.50;;
12059;SDS011;6091;51.432;6.880;2023-02-05T05:33:39;0.70;;;0.70;;
12059;SDS011;6091;51.432;6.880;2023-02-05T05:36:06;0.50;;;0.50;;
12059;SDS011;6091;51.432;6.880;2023-02-05T05:38:34;0.60;;;0.60;;
12059;SDS011;6091;51.432;6.880;2023-02-05T05:41:01;0.70;;;0.70;;
12059;SDS011;6091;51.432;6.880;2023-02-05T05:43:48;0.70;;;0.70;;
12059;SDS011;6091;51.432;6.880;2023-02-05T05:46:19;0.70;;;0.70;;
12059;SDS011;6091;51.432;6.880;2023-02-05T05:48:51;0.60;;;0.60;;
12059;SDS011;6091;51.432;6.880;2023-02-05T05:51:21;0.60;;;0.60;;
12059;SDS011;6091;51.432;6.880;2023-02-05T05:53:50;0.50;;;0.50;;
12059;SDS011;6091;51.432;6.880;2023-02-05T05:56:17;0.52;;;0.52;;
12059;SDS011;6091;51.432;6.880;2023-02-05T05:58:45;0.45;;;0.45;;
12059;SDS011;6091;51.432;6.880;2023-02-05T06:01:13;0.40;;;0.40;;
12059;SDS011;6091;51.432;6.880;2023-02-05T06:03:42;0.88;;;0.65;;
12059;SDS011;6091;51.432;6.880;2023-02-05T06:06:09;0.50;;;0.50;;
12059;SDS011;6091;51.432;6.880;2023-02-05T06:08:38;0.60;;;0.60;;
12059;SDS011;6091;51.432;6.880;2023-02-05T06:11:05;0.63;;;0.60;;
12059;SDS011;6091;51.432;6.880;2023-02-05T06:13:32;0.47;;;0.47;;
12059;SDS011;6091;51.432;6.880;2023-02-05T06:16:00;0.60;;;0.60;;
12059;SDS011;6091;51.432;6.880;2023-02-05T06:18:27;1.08;;;0.60;;
12059;SDS011;6091;51.432;6.880;2023-02-05T06:20:55;0.50;;;0.50;;
12059;SDS011;6091;51.432;6.880;2023-02-05T06:23:22;0.80;;;0.70;;
12059;SDS011;6091;51.432;6.880;2023-02-05T06:25:48;0.70;;;0.70;;
12059;SDS011;6091;51.432;6.880;2023-02-05T06:28:15;0.80;;;0.80;;
12059;SDS011;6091;51.432;6.880;2023-02-05T06:30:43;0.63;;;0.63;;
12059;SDS011;6091;51.432;6.880;2023-02-05T06:33:10;0.70;;;0.70;;
12059;SDS011;6091;51.432;6.880;2023-02-05T06:35:38;0.52;;;0.52;;
12059;SDS011;6091;51.432;6.880;2023-02-05T06:38:06;0.70;;;0.60;;
12059;SDS011;6091;51.432;6.880;2023-02-05T06:40:34;0.68;;;0.68;;
12059;SDS011;6091;51.432;6.880;2023-02-05T06:43:01;0.50;;;0.50;;
12059;SDS011;6091;51.432;6.880;2023-02-05T06:45:28;0.65;;;0.65;;
12059;SDS011;6091;51.432;6.880;2023-02-05T06:47:55;0.70;;;0.60;;
12059;SDS011;6091;51.432;6.880;2023-02-05T06:50:23;0.60;;;0.60;;
12059;SDS011;6091;51.432;6.880;2023-02-05T06:52:50;0.60;;;0.60;;
12059;SDS011;6091;51.432;6.880;2023-02-05T06:55:17;0.60;;;0.60;;
12059;SDS011;6091;51.432;6.880;2023-02-05T06:57:44;0.52;;;0.52;;
12059;SDS011;6091;51.432;6.880;2023-02-05T07:00:12;0.65;;;0.65;;
12059;SDS011;6091;51.432;6.880;2023-02-05T07:02:39;0.50;;;0.50;;
12059;SDS011;6091;51.432;6.880;2023-02-05T07:05:07;0.60;;;0.60;;
12059;SDS011;6091;51.432;6.880;2023-02-05T07:07:34;0.88;;;0.88;;
12059;SDS011;6091;51.432;6.880;2023-02-05T07:10:01;0.70;;;0.68;;
12059;SDS011;6091;51.432;6.880;2023-02-05T07:12:29;0.60;;;0.60;;
12059;SDS011;6091;51.432;6.880;2023-02-05T07:14:56;0.70;;;0.70;;
12059;SDS011;6091;51.432;6.880;2023-02-05T07:17:23;0.70;;;0.70;;
12059;SDS011;6091;51.432;6.880;2023-02-05T07:19:50;0.60;;;0.60;;
12059;SDS011;6091;51.432;6.880;2023-02-05T07:22:17;0.70;;;0.70;;
12059;SDS011;6091;51.432;6.880;2023-02-05T07:24:44;0.65;;;0.65;;
12059;SDS011;6091;51.432;6.880;2023-02-05T07:27:11;0.82;;;0.80;;
12059;SDS011;6091;51.432;6.880;2023-02-05T07:29:38;0.57;;;0.57;;
12059;SDS011;6091;51.432;6.880;2023-02-05T07:32:05;0.75;;;0.70;;
12059;SDS011;6091;51.432;6.880;2023-02-05T07:34:32;0.57;;;0.57;;
12059;SDS011;6091;51.432;6.880;2023-02-05T07:37:02;0.60;;;0.50;;
12059;SDS011;6091;51.432;6.880;2023-02-05T07:39:30;0.63;;;0.63;;
12059;SDS011;6091;51.432;6.880;2023-02-05T07:41:59;0.60;;;0.60;;
12059;SDS011;6091;51.432;6.880;2023-02-05T07:44:26;0.60;;;0.60;;
12059;SDS011;6091;51.432;6.880;2023-02-05T07:46:53;0.50;;;0.50;;
12059;SDS011;6091;51.432;6.880;2023-02-05T07:49:20;0.60;;;0.60;;
12059;SDS011;6091;51.432;6.880;2023-02-05T07:51:47;0.57;;;0.57;;
12059;SDS011;6091;51.432;6.880;2023-02-05T07:54:14;0.60;;;0.50;;
12059;SDS011;6091;51.432;6.880;2023-02-05T07:56:41;0.60;;;0.60;;
12059;SDS011;6091;51.432;6.880;2023-02-05T07:59:09;0.60;;;0.60;;
12059;SDS011;6091;51.432;6.880;2023-02-05T08:01:36;0.50;;;0.50;;
12059;SDS011;6091;51.432;6.880;2023-02-05T08:04:03;0.55;;;0.55;;
12059;SDS011;6091;51.432;6.880;2023-02-05T08:06:33;0.50;;;0.50;;
12059;SDS011;6091;51.432;6.880;2023-02-05T08:09:01;0.60;;;0.60;;
12059;SDS011;6091;51.432;6.880;2023-02-05T08:11:28;0.57;;;0.57;;
12059;SDS011;6091;51.432;6.880;2023-02-05T08:13:57;0.40;;;0.40;;
12059;SDS011;6091;51.432;6.880;2023-02-05T08:16:26;0.60;;;0.60;;
12059;SDS011;6091;51.432;6.880;2023-02-05T08:18:53;0.60;;;0.60;;
12059;SDS011;6091;51.432;6.880;2023-02-05T08:21:20;0.50;;;0.50;;
12059;SDS011;6091;51.432;6.880;2023-02-05T08:23:47;0.50;;;0.50;;
12059;SDS011;6091;51.432;6.880;2023-02-05T08:26:15;0.60;;;0.60;;
12059;SDS011;6091;51.432;6.880;2023-02-05T08:28:42;0.40;;;0.40;;
12059;SDS011;6091;51.432;6.880;2023-02-05T08:31:15;0.40;;;0.40;;
12059;SDS011;6091;51.432;6.880;2023-02-05T08:33:44;0.40;;;0.40;;
12059;SDS011;6091;51.432;6.880;2023-02-05T08:36:12;0.40;;;0.40;;
12059;SDS011;6091;51.432;6.880;2023-02-05T08:38:39;0.40;;;0.40;;
12059;SDS011;6091;51.432;6.880;2023-02-05T08:41:07;0.40;;;0.40;;
12059;SDS011;6091;51.432;6.880;2023-02-05T08:43:43;0.40;;;0.40;;
12059;SDS011;6091;51.432;6.880;2023-02-05T08:46:13;0.40;;;0.40;;
12059;SDS011;6091;51.432;6.880;2023-02-05T08:48:45;0.50;;;0.50;;
12059;SDS011;6091;51.432;6.880;2023-02-05T08:51:13;0.40;;;0.40;;
12059;SDS011;6091;51.432;6.880;2023-02-05T08:53:44;0.30;;;0.30;;
12059;SDS011;6091;51.432;6.880;2023-02-05T08:56:11;0.68;;;0.50;;
12059;SDS011;6091;51.432;6.880;2023-02-05T08:58:39;0.50;;;0.50;;
12059;SDS011;6091;51.432;6.880;2023-02-05T09:01:09;0.40;;;0.40;;
12059;SDS011;6091;51.432;6.880;2023-02-05T09:03:39;0.40;;;0.40;;
12059;SDS011;6091;51.432;6.880;2023-02-05T09:06:07;0.40;;;0.40;;
12059;SDS011;6091;51.432;6.880;2023-02-05T09:08:38;0.30;;;0.30;;
12059;SDS011;6091;51.432;6.880;2023-02-05T09:11:06;0.30;;;0.30;;
12059;SDS011;6091;51.432;6.880;2023-02-05T09:13:33;0.40;;;0.40;;
12059;SDS011;6091;51.432;6.880;2023-02-05T09:16:00;0.40;;;0.40;;
12059;SDS011;6091;51.432;6.880;2023-02-05T09:18:31;0.40;;;0.40;;
12059;SDS011;6091;51.432;6.880;2023-02-05T09:20:57;0.43;;;0.43;;
12059;SDS011;6091;51.432;6.880;2023-02-05T09:23:24;0.30;;;0.30;;
12059;SDS011;6091;51.432;6.880;2023-02-05T09:25:51;0.40;;;0.40;;
12059;SDS011;6091;51.432;6.880;2023-02-05T09:28:18;0.30;;;0.30;;
12059;SDS011;6091;51.432;6.880;2023-02-05T09:30:45;0.30;;;0.30;;
12059;SDS011;6091;51.432;6.880;2023-02-05T09:33:13;0.30;;;0.30;;
12059;SDS011;6091;51.432;6.880;2023-02-05T09:35:40;0.30;;;0.30;;
12059;SDS011;6091;51.432;6.880;2023-02-05T09:38:07;0.30;;;0.30;;
12059;SDS011;6091;51.432;6.880;2023-02-05T09:43:37;0.77;;;0.40;;
12059;SDS011;6091;51.432;6.880;2023-02-05T09:52:45;0.30;;;0.30;;
12059;SDS011;6091;51.432;6.880;2023-02-05T09:55:18;0.30;;;0.30;;
12059;SDS011;6091;51.432;6.880;2023-02-05T09:57:50;0.30;;;0.30;;
12059;SDS011;6091;51.432;6.880;2023-02-05T10:00:31;0.30;;;0.30;;
12059;SDS011;6091;51.432;6.880;2023-02-05T10:09:19;0.32;;;0.32;;
12059;SDS011;6091;51.432;6.880;2023-02-05T10:21:54;0.30;;;0.30;;
12059;SDS011;6091;51.432;6.880;2023-02-05T10:24:37;0.30;;;0.30;;
12059;SDS011;6091;51.432;6.880;2023-02-05T10:29:56;0.38;;;0.38;;
12059;SDS011;6091;51.432;6.880;2023-02-05T10:38:22;0.20;;;0.20;;
12059;SDS011;6091;51.432;6.880;2023-02-05T10:40:55;0.30;;;0.30;;
12059;SDS011;6091;51.432;6.880;2023-02-05T10:43:38;0.30;;;0.30;;
12059;SDS011;6091;51.432;6.880;2023-02-05T10:46:15;0.30;;;0.30;;
12059;SDS011;6091;51.432;6.880;2023-02-05T10:51:42;0.35;;;0.35;;
12059;SDS011;6091;51.432;6.880;2023-02-05T10:54:30;0.30;;;0.30;;
12059;SDS011;6091;51.432;6.880;2023-02-05T10:56:59;0.20;;;0.20;;
12059;SDS011;6091;51.432;6.880;2023-02-05T10:59:28;0.20;;;0.20;;
12059;SDS011;6091;51.432;6.880;2023-02-05T11:02:05;0.32;;;0.32;;
12059;SDS011;6091;51.432;6.880;2023-02-05T11:04:45;0.20;;;0.20;;
12059;SDS011;6091;51.432;6.880;2023-02-05T11:07:29;0.30;;;0.30;;
12059;SDS011;6091;51.432;6.880;2023-02-05T11:10:18;0.35;;;0.35;;
12059;SDS011;6091;51.432;6.880;2023-02-05T11:12:52;0.17;;;0.17;;
12059;SDS011;6091;51.432;6.880;2023-02-05T11:15:30;0.40;;;0.40;;
12059;SDS011;6091;51.432;6.880;2023-02-05T11:18:05;0.60;;;0.50;;
12059;SDS011;6091;51.432;6.880;2023-02-05T11:20:37;0.30;;;0.30;;
12059;SDS011;6091;51.432;6.880;2023-02-05T11:23:18;0.30;;;0.30;;
12059;SDS011;6091;51.432;6.880;2023-02-05T11:25:49;0.40;;;0.40;;
12059;SDS011;6091;51.432;6.880;2023-02-05T11:28:31;0.30;;;0.30;;
12059;SDS011;6091;51.432;6.880;2023-02-05T11:31:18;0.28;;;0.25;;
12059;SDS011;6091;51.432;6.880;2023-02-05T11:36:33;0.47;;;0.40;;
12059;SDS011;6091;51.432;6.880;2023-02-05T11:39:04;0.30;;;0.30;;
12059;SDS011;6091;51.432;6.880;2023-02-05T11:44:25;0.40;;;0.30;;
12059;SDS011;6091;51.432;6.880;2023-02-05T11:47:00;0.20;;;0.20;;
12059;SDS011;6091;51.432;6.880;2023-02-05T11:49:30;0.30;;;0.30;;
12059;SDS011;6091;51.432;6.880;2023-02-05T11:52:08;0.30;;;0.30;;
12059;SDS011;6091;51.432;6.880;2023-02-05T11:54:44;1.35;;;0.30;;
12059;SDS011;6091;51.432;6.880;2023-02-05T12:02:34;0.30;;;0.30;;
12059;SDS011;6091;51.432;6.880;2023-02-05T12:10:42;0.35;;;0.35;;
12059;SDS011;6091;51.432;6.880;2023-02-05T12:19:47;0.30;;;0.30;;
12059;SDS011;6091;51.432;6.880;2023-02-05T12:22:45;1.55;;;0.30;;
12059;SDS011;6091;51.432;6.880;2023-02-05T12:31:52;0.30;;;0.30;;
12059;SDS011;6091;51.432;6.880;2023-02-05T12:58:52;0.20;;;0.20;;
12059;SDS011;6091;51.432;6.880;2023-02-05T13:01:34;0.30;;;0.30;;
12059;SDS011;6091;51.432;6.880;2023-02-05T13:04:50;0.30;;;0.30;;
12059;SDS011;6091;51.432;6.880;2023-02-05T13:07:29;0.20;;;0.20;;
12059;SDS011;6091;51.432;6.880;2023-02-05T13:10:12;0.40;;;0.40;;
12059;SDS011;6091;51.432;6.880;2023-02-05T13:12:49;0.20;;;0.20;;
12059;SDS011;6091;51.432;6.880;2023-02-05T13:15:30;0.32;;;0.32;;
12059;SDS011;6091;51.432;6.880;2023-02-05T13:18:29;0.28;;;0.28;;
12059;SDS011;6091;51.432;6.880;2023-02-05T13:21:16;0.30;;;0.30;;
12059;SDS011;6091;51.432;6.880;2023-02-05T13:27:25;0.30;;;0.28;;
12059;SDS011;6091;51.432;6.880;2023-02-05T13:30:30;0.20;;;0.20;;
12059;SDS011;6091;51.432;6.880;2023-02-05T13:33:10;0.38;;;0.25;;
12059;SDS011;6091;51.432;6.880;2023-02-05T13:56:10;0.20;;;0.20;;
12059;SDS011;6091;51.432;6.880;2023-02-05T13:59:34;0.25;;;0.25;;
12059;SDS011;6091;51.432;6.880;2023-02-05T14:02:26;0.30;;;0.30;;
12059;SDS011;6091;51.432;6.880;2023-02-05T14:05:02;0.20;;;0.20;;
12059;SDS011;6091;51.432;6.880;2023-02-05T14:07:32;0.30;;;0.30;;
12059;SDS011;6091;51.432;6.880;2023-02-05T14:10:21;0.30;;;0.30;;
12059;SDS011;6091;51.432;6.880;2023-02-05T14:13:08;0.28;;;0.28;;
12059;SDS011;6091;51.432;6.880;2023-02-05T14:15:45;0.20;;;0.20;;
12059;SDS011;6091;51.432;6.880;2023-02-05T14:27:47;0.22;;;0.22;;
12059;SDS011;6091;51.432;6.880;2023-02-05T14:33:03;0.30;;;0.30;;
12059;SDS011;6091;51.432;6.880;2023-02-05T14:35:55;0.30;;;0.30;;
12059;SDS011;6091;51.432;6.880;2023-02-05T14:38:43;0.30;;;0.30;;
12059;SDS011;6091;51.432;6.880;2023-02-05T14:41:32;0.30;;;0.30;;
12059;SDS011;6091;51.432;6.880;2023-02-05T14:44:16;0.20;;;0.20;;
12059;SDS011;6091;51.432;6.880;2023-02-05T14:47:07;0.20;;;0.20;;
12059;SDS011;6091;51.432;6.880;2023-02-05T14:49:44;0.30;;;0.30;;
12059;SDS011;6091;51.432;6.880;2023-02-05T14:52:32;0.30;;;0.30;;
12059;SDS011;6091;51.432;6.880;2023-02-05T14:57:52;0.30;;;0.30;;
12059;SDS011;6091;51.432;6.880;2023-02-05T15:00:50;0.20;;;0.20;;
12059;SDS011;6091;51.432;6.880;2023-02-05T15:03:59;0.30;;;0.30;;
12059;SDS011;6091;51.432;6.880;2023-02-05T15:06:30;0.28;;;0.28;;
12059;SDS011;6091;51.432;6.880;2023-02-05T15:09:11;0.20;;;0.20;;
12059;SDS011;6091;51.432;6.880;2023-02-05T15:12:07;0.40;;;0.40;;
12059;SDS011;6091;51.432;6.880;2023-02-05T15:20:58;0.13;;;0.13;;
12059;SDS011;6091;51.432;6.880;2023-02-05T15:23:29;0.20;;;0.20;;
12059;SDS011;6091;51.432;6.880;2023-02-05T15:26:04;0.28;;;0.28;;
12059;SDS011;6091;51.432;6.880;2023-02-05T15:31:44;0.20;;;0.20;;
12059;SDS011;6091;51.432;6.880;2023-02-05T15:39:51;0.28;;;0.28;;
12059;SDS011;6091;51.432;6.880;2023-02-05T15:42:31;0.30;;;0.30;;
12059;SDS011;6091;51.432;6.880;2023-02-05T15:45:15;0.30;;;0.30;;
12059;SDS011;6091;51.432;6.880;2023-02-05T15:48:01;0.30;;;0.30;;
12059;SDS011;6091;51.432;6.880;2023-02-05T15:50:47;0.28;;;0.28;;
12059;SDS011;6091;51.432;6.880;2023-02-05T15:56:05;0.20;;;0.20;;
12059;SDS011;6091;51.432;6.880;2023-02-05T15:58:44;0.30;;;0.30;;
12059;SDS011;6091;51.432;6.880;2023-02-05T16:01:21;0.17;;;0.17;;
12059;SDS011;6091;51.432;6.880;2023-02-05T16:03:54;0.28;;;0.28;;
12059;SDS011;6091;51.432;6.880;2023-02-05T16:06:22;0.20;;;0.20;;
12059;SDS011;6091;51.432;6.880;2023-02-05T16:08:52;0.47;;;0.30;;
12059;SDS011;6091;51.432;6.880;2023-02-05T16:11:32;0.30;;;0.30;;
12059;SDS011;6091;51.432;6.880;2023-02-05T16:14:05;0.35;;;0.30;;
12059;SDS011;6091;51.432;6.880;2023-02-05T16:16:49;0.30;;;0.30;;
12059;SDS011;6091;51.432;6.880;2023-02-05T16:19:33;0.20;;;0.20;;
12059;SDS011;6091;51.432;6.880;2023-02-05T16:25:05;0.30;;;0.30;;
12059;SDS011;6091;51.432;6.880;2023-02-05T16:27:49;0.90;;;0.30;;
12059;SDS011;6091;51.432;6.880;2023-02-05T16:30:19;0.30;;;0.30;;
12059;SDS011;6091;51.432;6.880;2023-02-05T16:33:06;0.30;;;0.30;;
12059;SDS011;6091;51.432;6.880;2023-02-05T16:35:58;0.30;;;0.30;;
12059;SDS011;6091;51.432;6.880;2023-02-05T16:38:28;0.40;;;0.40;;
12059;SDS011;6091;51.432;6.880;2023-02-05T16:40:57;0.30;;;0.30;;
12059;SDS011;6091;51.432;6.880;2023-02-05T16:43:43;0.50;;;0.38;;
12059;SDS011;6091;51.432;6.880;2023-02-05T16:57:00;0.40;;;0.32;;
12059;SDS011;6091;51.432;6.880;2023-02-05T17:02:19;0.35;;;0.35;;
12059;SDS011;6091;51.432;6.880;2023-02-05T17:05:03;0.30;;;0.30;;
12059;SDS011;6091;51.432;6.880;2023-02-05T17:10:54;0.35;;;0.35;;
12059;SDS011;6091;51.432;6.880;2023-02-05T17:13:31;0.30;;;0.30;;
12059;SDS011;6091;51.432;6.880;2023-02-05T17:16:27;0.65;;;0.40;;
12059;SDS011;6091;51.432;6.880;2023-02-05T17:18:58;0.30;;;0.30;;
12059;SDS011;6091;51.432;6.880;2023-02-05T17:21:31;0.30;;;0.30;;
12059;SDS011;6091;51.432;6.880;2023-02-05T17:24:00;0.47;;;0.40;;
12059;SDS011;6091;51.432;6.880;2023-02-05T17:26:31;0.20;;;0.20;;
12059;SDS011;6091;51.432;6.880;2023-02-05T17:29:03;0.30;;;0.30;;
12059;SDS011;6091;51.432;6.880;2023-02-05T17:31:36;0.40;;;0.40;;
12059;SDS011;6091;51.432;6.880;2023-02-05T17:34:04;0.75;;;0.50;;
12059;SDS011;6091;51.432;6.880;2023-02-05T17:36:32;0.30;;;0.30;;
12059;SDS011;6091;51.432;6.880;2023-02-05T17:38:59;0.75;;;0.40;;
12059;SDS011;6091;51.432;6.880;2023-02-05T17:41:26;0.30;;;0.30;;
12059;SDS011;6091;51.432;6.880;2023-02-05T17:44:16;0.40;;;0.40;;
12059;SDS011;6091;51.432;6.880;2023-02-05T17:46:43;0.20;;;0.20;;
12059;SDS011;6091;51.432;6.880;2023-02-05T17:49:11;0.28;;;0.28;;
12059;SDS011;6091;51.432;6.880;2023-02-05T17:51:38;0.30;;;0.30;;
12059;SDS011;6091;51.432;6.880;2023-02-05T17:54:14;0.50;;;0.30;;
12059;SDS011;6091;51.432;6.880;2023-02-05T17:56:43;0.30;;;0.30;;
12059;SDS011;6091;51.432;6.880;2023-02-05T17:59:14;0.20;;;0.20;;
12059;SDS011;6091;51.432;6.880;2023-02-05T18:01:45;0.55;;;0.30;;
12059;SDS011;6091;51.432;6.880;2023-02-05T18:04:14;0.40;;;0.40;;
12059;SDS011;6091;51.432;6.880;2023-02-05T18:06:44;0.35;;;0.30;;
12059;SDS011;6091;51.432;6.880;2023-02-05T18:09:16;0.20;;;0.20;;
12059;SDS011;6091;51.432;6.880;2023-02-05T18:11:45;0.43;;;0.40;;
12059;SDS011;6091;51.432;6.880;2023-02-05T18:14:12;0.25;;;0.25;;
12059;SDS011;6091;51.432;6.880;2023-02-05T18:16:39;0.30;;;0.30;;
12059;SDS011;6091;51.432;6.880;2023-02-05T18:19:07;0.30;;;0.30;;
12059;SDS011;6091;51.432;6.880;2023-02-05T18:21:34;0.20;;;0.20;;
12059;SDS011;6091;51.432;6.880;2023-02-05T18:24:01;0.30;;;0.30;;
12059;SDS011;6091;51.432;6.880;2023-02-05T18:26:29;0.20;;;0.20;;
12059;SDS011;6091;51.432;6.880;2023-02-05T18:28:56;0.30;;;0.30;;
12059;SDS011;6091;51.432;6.880;2023-02-05T18:31:23;0.75;;;0.43;;
12059;SDS011;6091;51.432;6.880;2023-02-05T18:33:50;0.40;;;0.40;;
12059;SDS011;6091;51.432;6.880;2023-02-05T18:36:19;0.28;;;0.28;;
12059;SDS011;6091;51.432;6.880;2023-02-05T18:38:46;0.30;;;0.30;;
12059;SDS011;6091;51.432;6.880;2023-02-05T18:41:14;0.38;;;0.30;;
12059;SDS011;6091;51.432;6.880;2023-02-05T18:43:46;0.43;;;0.40;;
12059;SDS011;6091;51.432;6.880;2023-02-05T18:46:14;0.40;;;0.30;;